Latest Weather Observations for King Island Airport

IDT60801

Issued at 1:51 am EDT Saturday 29 February 2020 (issued every 10 minutes, with the page automatically refreshed every 10 minutes)

About weather observations | Map of weather stations | Latest weather observations for TAS | Other Formats
Station Details ID: 098017 Name: KING ISLAND AIRPORT Lat: -39.88 Lon: 143.89 Height: 35.42 m
Data from the previous 72 hours. | See also: Recent months at King Island Airport
Date/Time
EDT
Temp
°C
App
Temp
°C
Dew
Point
°C
Rel
Hum
%
Delta-T
°C
Wind Press
QNH
hPa
Press
MSL
hPa
Rain since
9am
mm
Dir  Spd
km/h
Gust
km/h
Spd
kts
Gust
kts
29/01:30am 14.6 12.9 12.5 87 1.1 WNW 13 17 7 9 1015.4 1015.4 0.0
29/01:00am 15.0 11.5 12.1 83 1.6 WNW 22 30 12 16 1015.4 1015.4 0.0
29/12:30am 15.2 12.0 11.2 77 2.1 W 19 28 10 15 1015.4 1015.4 0.0
29/12:00am 14.6 12.0 11.9 84 1.5 W 17 22 9 12 1015.6 1015.6 0.0
 
Date/Time
EDT
Temp
°C
App
Temp
°C
Dew
Point
°C
Rel
Hum
%
Delta-T
°C
Wind Press
QNH
hPa
Press
MSL
hPa
Rain since
9am
mm
Dir  Spd
km/h
Gust
km/h
Spd
kts
Gust
kts
28/11:30pm 15.0 12.6 12.5 85 1.4 W 17 26 9 14 1015.4 1015.4 0.0
28/11:00pm 15.2 11.8 11.2 77 2.1 W 20 30 11 16 1015.7 1015.7 0.0
28/10:30pm 15.2 11.7 11.0 76 2.2 W 20 28 11 15 1015.7 1015.7 0.0
28/10:00pm 15.1 11.8 11.5 79 1.9 WSW 20 26 11 14 1015.6 1015.6 0.0
28/09:30pm 15.2 11.5 11.4 78 2.0 W 22 35 12 19 1015.3 1015.3 0.0
28/09:00pm 15.0 11.7 11.6 80 1.8 W 20 28 11 15 1015.1 1015.1 0.0
28/08:30pm 15.1 11.3 11.3 78 2.0 WSW 22 32 12 17 1015.0 1015.0 0.0
28/08:00pm 15.3 11.1 11.1 76 2.2 W 24 35 13 19 1014.7 1014.6 0.0
28/07:30pm 15.3 11.6 11.5 78 2.0 W 22 30 12 16 1014.7 1014.6 0.0
28/07:00pm 15.8 11.6 11.0 73 2.6 W 24 32 13 17 1014.4 1014.3 0.0
28/06:30pm 16.0 11.3 12.0 77 2.2 WSW 28 35 15 19 1014.2 1014.1 0.0
28/06:00pm 16.0 11.8 12.4 79 2.0 W 26 37 14 20 1014.1 1014.0 0.0
28/05:32pm 16.0 11.4 12.4 79 2.0 WSW 28 37 15 20 1014.2 1014.1 0.0
28/05:30pm 16.0 11.5 12.6 80 1.9 WSW 28 37 15 20 1014.1 1014.0 0.0
28/05:17pm 17.2 13.6 14.3 83 1.7 W 26 37 14 20 1014.0 1013.9 0.0
28/05:00pm 15.7 12.1 14.1 90 0.9 W 26 39 14 21 1014.1 1014.0 0.0
28/04:30pm 17.7 13.3 13.0 74 2.6 WNW 28 41 15 22 1014.1 1014.0 0.0
28/04:00pm 17.1 12.6 12.6 75 2.5 W 28 41 15 22 1014.2 1014.1 0.0
28/03:30pm 15.9 12.6 14.1 89 1.0 W 24 35 13 19 1014.5 1014.4 0.0
28/03:00pm 16.1 12.5 13.0 82 1.7 W 24 33 13 18 1014.5 1014.4 0.0
28/02:30pm 16.7 13.1 12.0 74 2.6 WNW 22 33 12 18 1014.7 1014.6 0.0
28/02:00pm 17.2 13.7 12.1 72 2.8 WNW 22 30 12 16 1014.7 1014.6 0.0
28/01:30pm 15.6 11.0 12.4 81 1.8 WSW 28 37 15 20 1014.8 1014.7 0.0
28/01:00pm 17.8 14.2 12.0 69 3.2 W 22 32 12 17 1014.7 1014.6 0.0
28/12:30pm 16.8 13.2 11.7 72 2.8 W 22 32 12 17 1014.9 1014.9 0.0
28/12:00pm 16.3 12.2 11.5 73 2.6 WSW 24 33 13 18 1014.8 1014.7 0.0
28/11:30am 17.0 13.2 11.1 68 3.2 WSW 22 32 12 17 1014.4 1014.3 0.0
28/11:00am 16.3 12.5 11.2 72 2.7 W 22 35 12 19 1014.2 1014.1 0.0
28/10:30am 16.1 11.6 10.2 68 3.1 WSW 24 35 13 19 1014.0 1013.9 0.0
28/10:00am 15.8 11.6 11.0 73 2.6 WSW 24 33 13 18 1013.6 1013.5 0.0
28/09:30am 15.5 12.4 12.3 81 1.8 SW 20 32 11 17 1013.2 1013.1 0.0
28/09:00am 14.2 8.8 11.0 81 1.7 SW 30 41 16 22 1013.1 1013.0 1.6
28/08:30am 13.6 10.4 12.0 90 0.9 WSW 20 32 11 17 1012.7 1012.6 1.6
28/08:00am 13.8 9.0 10.2 79 1.9 WSW 26 35 14 19 1012.4 1012.3 1.6
28/07:30am 13.4 9.4 11.8 90 0.9 WSW 24 33 13 18 1012.0 1011.9 1.6
28/07:00am 13.1 7.9 11.7 91 0.7 WSW 30 39 16 21 1011.4 1011.3 1.6
28/06:30am 13.7 8.2 10.7 82 1.6 SW 30 39 16 21 1010.8 1010.7 1.4
28/06:00am 13.0 7.5 10.4 84 1.4 WSW 30 41 16 22 1010.4 1010.3 1.4
28/05:47am 12.7 8.6 11.3 91 0.7 WSW 24 35 13 19 1010.3 1010.2 1.4
28/05:33am 12.8 7.1 11.2 90 0.8 WSW 32 43 17 23 1010.3 1010.2 1.4
28/05:30am 13.0 7.6 10.9 87 1.1 WSW 30 43 16 23 1010.3 1010.2 1.4
28/05:00am 13.2 8.0 10.4 83 1.5 WSW 28 41 15 22 1009.9 1009.8 1.4
28/04:30am 13.9 7.7 9.5 75 2.3 WSW 32 43 17 23 1009.7 1009.6 1.4
28/04:00am 13.9 8.0 10.3 79 1.9 WSW 32 43 17 23 1009.6 1009.5 1.4
28/03:30am 13.7 6.8 10.3 80 1.8 WSW 37 48 20 26 1009.4 1009.3 1.4
28/03:00am 14.0 8.0 10.2 78 2.0 WSW 32 44 17 24 1009.3 1009.2 1.4
28/02:30am 13.6 7.7 11.0 84 1.4 WSW 33 46 18 25 1009.4 1009.3 1.4
28/02:12am 13.1 8.2 11.2 88 1.0 WSW 28 39 15 21 1009.3 1009.2 1.4
28/02:05am 12.9 8.4 11.5 91 0.7 WSW 26 41 14 22 1009.4 1009.3 1.4
28/02:02am 12.7 7.1 11.4 92 0.7 WSW 32 50 17 27 1009.4 1009.3 1.4
28/02:00am 12.9 7.2 11.8 93 0.6 SW 33 50 18 27 1009.4 1009.3 1.4
28/01:56am 13.0 6.1 11.7 92 0.7 WSW 39 52 21 28 1009.5 1009.4 1.4
28/01:55am 13.0 6.1 11.6 91 0.7 WSW 39 52 21 28 1009.5 1009.4 1.4
28/01:30am 14.6 7.5 9.4 71 2.7 WSW 37 52 20 28 1009.2 1009.1 1.2
28/01:00am 14.3 8.1 9.3 72 2.6 WSW 32 44 17 24 1009.0 1008.9 1.2
28/12:32am 14.2 6.3 9.2 72 2.6 WSW 41 59 22 32 1009.2 1009.1 1.2
28/12:30am 14.3 6.8 9.5 73 2.5 WSW 39 56 21 30 1009.1 1009.0 1.2
28/12:20am 14.1 6.6 9.5 74 2.4 WSW 39 57 21 31 1009.2 1009.1 1.2
28/12:00am 13.8 6.3 9.6 76 2.2 WSW 39 54 21 29 1009.1 1009.0 1.2
 
Date/Time
EDT
Temp
°C
App
Temp
°C
Dew
Point
°C
Rel
Hum
%
Delta-T
°C
Wind Press
QNH
hPa
Press
MSL
hPa
Rain since
9am
mm
Dir  Spd
km/h
Gust
km/h
Spd
kts
Gust
kts
27/11:31pm 13.3 7.1 11.4 88 1.0 WSW 35 54 19 29 1008.8 1008.7 1.2
27/11:30pm 13.3 6.7 11.5 89 1.0 W 37 54 20 29 1008.8 1008.7 1.2
27/11:29pm 13.2 7.0 11.4 89 1.0 W 35 54 19 29 1008.9 1008.8 1.2
27/11:00pm 14.3 8.4 11.1 81 1.7 WSW 33 48 18 26 1008.9 1008.8 1.2
27/10:33pm 14.4 7.9 10.4 77 2.1 WSW 35 57 19 31 1009.0 1008.9 1.2
27/10:30pm 14.7 8.3 10.7 77 2.1 WSW 35 48 19 26 1008.9 1008.8 1.2
27/10:00pm 13.9 7.3 10.1 78 2.0 W 35 52 19 28 1008.9 1008.8 1.2
27/09:44pm 14.5 8.2 10.9 79 1.9 WSW 35 56 19 30 1008.6 1008.5 1.2
27/09:30pm 14.7 8.7 10.7 77 2.1 WSW 33 46 18 25 1008.4 1008.3 1.2
27/09:07pm 14.8 7.8 10.0 73 2.5 WSW 37 56 20 30 1008.2 1008.1 1.2
27/09:00pm 14.8 7.4 10.0 73 2.5 WSW 39 56 21 30 1008.0 1007.9 1.2
27/08:42pm 14.8 7.1 8.7 67 3.1 WSW 39 57 21 31 1007.8 1007.7 1.2
27/08:30pm 15.0 7.4 9.1 68 3.0 WSW 39 54 21 29 1007.8 1007.7 1.2
27/08:00pm 14.7 8.4 11.1 79 1.9 WSW 35 48 19 26 1007.7 1007.6 1.2
27/07:45pm 14.1 8.3 11.4 84 1.4 WSW 33 52 18 28 1007.7 1007.6 1.2
27/07:30pm 15.2 8.3 10.2 72 2.6 WSW 37 48 20 26 1007.5 1007.4 1.2
27/07:11pm 15.3 8.0 10.3 72 2.6 W 39 57 21 31 1007.4 1007.3 1.2
27/07:00pm 15.2 7.5 10.0 71 2.7 WSW 41 52 22 28 1007.2 1007.1 1.2
27/06:30pm 15.3 8.8 10.5 73 2.5 WSW 35 54 19 29 1007.2 1007.1 1.2
27/06:10pm 15.2 8.3 11.6 79 1.9 WSW 39 56 21 30 1007.3 1007.2 1.2
27/06:00pm 14.7 9.0 13.1 90 0.9 WSW 35 56 19 30 1007.3 1007.2 1.2
27/05:40pm 14.1 8.0 13.1 94 0.6 WSW 37 57 20 31 1006.8 1006.7 1.2
27/05:30pm 14.3 8.9 13.8 97 0.3 WSW 35 46 19 25 1006.9 1006.8 1.0
27/05:28pm 14.3 8.9 13.8 97 0.3 WSW 35 48 19 26 1006.9 1006.8 1.0
27/05:25pm 14.4 9.4 13.9 97 0.3 W 33 48 18 26 1006.9 1006.8 1.0
27/05:22pm 14.2 9.0 13.4 95 0.4 W 33 52 18 28 1007.0 1006.9 1.0
27/05:18pm 14.8 9.9 14.2 96 0.3 W 33 52 18 28 1006.8 1006.7 1.0
27/05:12pm 14.5 8.6 13.7 95 0.4 W 37 54 20 29 1006.8 1006.7 1.0
27/05:05pm 14.7 9.2 13.7 94 0.6 W 35 54 19 29 1006.7 1006.6 1.0
27/05:00pm 14.8 9.8 14.0 95 0.5 WSW 33 44 18 24 1006.7 1006.6 1.0
27/04:55pm 14.8 9.5 14.2 96 0.3 WSW 35 54 19 29 1006.7 1006.6 1.0
27/04:36pm 15.2 8.8 14.4 95 0.5 W 41 54 22 29 1006.7 1006.6 1.0
27/04:30pm 15.2 9.3 14.6 96 0.3 W 39 54 21 29 1006.6 1006.5 1.0
27/04:27pm 15.3 9.4 14.7 96 0.3 W 39 61 21 33 1006.6 1006.5 1.0
27/04:11pm 14.9 7.8 13.3 90 0.9 W 43 65 23 35 1006.8 1006.7 0.8
27/04:00pm 15.3 7.4 12.6 84 1.5 W 46 70 25 38 1006.7 1006.6 0.6
27/03:30pm 17.6 10.1 12.7 73 2.7 WNW 44 63 24 34 1006.8 1006.7 0.6
27/03:06pm 17.4 10.0 12.5 73 2.7 WNW 43 61 23 33 1007.1 1007.0 0.6
27/03:00pm 17.2 9.1 11.9 71 2.9 WNW 46 61 25 33 1007.1 1007.0 0.6
27/02:30pm 17.9 10.5 13.0 73 2.8 WNW 44 59 24 32 1007.1 1007.0 0.6
27/02:15pm 18.1 10.7 12.3 69 3.2 WNW 43 61 23 33 1007.3 1007.2 0.6
27/02:00pm 17.8 9.9 12.7 72 2.9 WNW 46 63 25 34 1007.2 1007.1 0.6
27/01:30pm 17.4 10.0 12.3 72 2.8 WNW 43 56 23 30 1007.7 1007.6 0.6
27/01:00pm 15.9 8.4 12.1 78 2.1 WNW 43 57 23 31 1007.7 1007.6 0.6
27/12:30pm 15.4 9.3 11.6 78 2.1 W 35 54 19 29 1008.4 1008.3 0.6
27/12:12pm 13.8 7.7 11.7 87 1.1 W 35 57 19 31 1008.7 1008.6 0.6
27/12:11pm 14.4 8.5 12.4 88 1.1 W 35 50 19 27 1008.8 1008.7 0.4
27/12:00pm 14.3 8.2 13.0 92 0.7 W 37 52 20 28 1008.8 1008.7 0.4
27/11:54am 14.3 8.0 12.2 87 1.1 W 37 52 20 28 1008.7 1008.6 0.4
27/11:30am 17.5 10.3 12.0 70 3.0 WNW 41 54 22 29 1008.8 1008.7 0.2
27/11:00am 15.6 9.6 12.2 80 1.9 WNW 35 50 19 27 1008.5 1008.4 0.2
27/10:30am 13.8 7.4 10.8 82 1.6 W 35 56 19 30 1008.6 1008.5 0.2
27/10:07am 14.6 8.2 10.6 77 2.1 W 35 54 19 29 1008.6 1008.5 0.0
27/10:00am 14.6 7.1 9.4 71 2.7 W 39 54 21 29 1008.6 1008.5 0.0
27/09:42am 15.2 8.5 9.6 69 2.9 W 35 54 19 29 1008.6 1008.5 0.0
27/09:30am 14.7 8.6 10.3 75 2.3 W 33 50 18 27 1008.7 1008.6 0.0
27/09:09am 14.6 7.7 10.4 76 2.2 W 37 52 20 28 1008.7 1008.6 0.0
27/09:00am 14.5 7.3 10.7 78 2.0 WNW 39 52 21 28 1008.6 1008.5 0.2
27/08:30am 13.6 7.6 10.2 80 1.8 W 32 50 17 27 1008.8 1008.7 0.2
27/08:14am 14.3 7.5 9.1 71 2.7 WNW 35 54 19 29 1008.7 1008.6 0.2
27/08:00am 14.2 7.7 8.8 70 2.7 W 33 46 18 25 1008.6 1008.5 0.2
27/07:37am 14.0 8.0 10.8 81 1.7 W 33 52 18 28 1008.7 1008.6 0.2
27/07:30am 14.4 7.3 9.4 72 2.6 W 37 52 20 28 1008.6 1008.5 0.2
27/07:24am 14.7 8.3 8.6 67 3.1 WNW 32 52 17 28 1008.5 1008.4 0.2
27/07:00am 14.2 7.1 7.9 66 3.1 WNW 35 46 19 25 1008.3 1008.2 0.2
27/06:44am 13.9 7.5 8.7 71 2.6 W 32 50 17 27 1008.5 1008.4 0.2
27/06:30am 14.0 7.4 8.6 70 2.7 W 33 48 18 26 1008.4 1008.3 0.2
27/06:00am 14.0 7.3 7.3 64 3.3 WNW 32 46 17 25 1008.5 1008.4 0.2
27/05:30am 13.6 7.8 7.8 68 2.9 W 28 41 15 22 1008.5 1008.4 0.2
27/05:02am 13.0 6.6 8.5 74 2.2 W 32 52 17 28 1008.7 1008.6 0.2
27/05:00am 13.1 6.9 9.2 77 2.0 WNW 32 43 17 23 1008.7 1008.6 0.2
27/04:30am 13.0 6.9 10.5 85 1.3 W 33 46 18 25 1009.2 1009.1 0.2
27/04:00am 13.7 7.6 8.1 69 2.8 W 30 41 16 22 1009.2 1009.1 0.0
27/03:30am 13.9 7.6 7.4 65 3.2 W 30 44 16 24 1009.4 1009.3 0.0
27/03:00am 14.1 7.3 5.2 55 4.2 W 30 43 16 23 1009.6 1009.5 0.0
27/02:30am 14.0 7.3 5.6 57 4.0 W 30 44 16 24 1010.1 1010.0 0.0
27/02:00am 13.9 8.0 7.4 65 3.2 W 28 39 15 21 1010.6 1010.5 0.0
27/01:30am 13.8 8.6 7.3 65 3.2 W 24 39 13 21 1010.8 1010.7 0.0
27/01:00am 13.9 7.4 6.5 61 3.6 W 30 39 16 21 1011.0 1010.9 0.0
27/12:30am 13.6 7.9 6.9 64 3.2 W 26 33 14 18 1011.3 1011.2 0.0
27/12:00am 13.2 7.7 6.1 62 3.4 W 24 35 13 19 1011.4 1011.3 0.0
 
Date/Time
EDT
Temp
°C
App
Temp
°C
Dew
Point
°C
Rel
Hum
%
Delta-T
°C
Wind Press
QNH
hPa
Press
MSL
hPa
Rain since
9am
mm
Dir  Spd
km/h
Gust
km/h
Spd
kts
Gust
kts
26/11:30pm 13.1 7.2 5.8 61 3.4 W 26 41 14 22 1011.5 1011.4 0.0
26/11:00pm 13.1 7.5 5.3 59 3.6 W 24 33 13 18 1011.7 1011.6 0.0
26/10:30pm 13.3 7.9 6.4 63 3.3 W 24 33 13 18 1011.8 1011.7 0.0
26/10:00pm 13.4 8.7 6.0 61 3.5 W 20 33 11 18 1011.8 1011.7 0.0
26/09:30pm 13.3 7.6 4.7 56 4.0 W 24 35 13 19 1011.8 1011.7 0.0
26/09:00pm 13.6 8.7 6.7 63 3.3 WSW 22 32 12 17 1011.8 1011.7 0.0
26/08:30pm 13.3 8.6 5.9 61 3.5 WSW 20 33 11 18 1011.7 1011.6 0.0
26/08:00pm 13.4 8.8 6.3 62 3.4 WSW 20 32 11 17 1011.6 1011.5 0.0
26/07:30pm 13.7 9.0 6.1 60 3.6 WSW 20 28 11 15 1011.5 1011.4 0.0
26/07:00pm 14.5 8.1 5.0 53 4.5 WSW 28 37 15 20 1011.5 1011.4 0.0
26/06:30pm 14.2 7.8 5.0 54 4.3 WSW 28 41 15 22 1011.3 1011.2 0.0
26/06:00pm 15.2 9.0 6.0 54 4.4 WSW 28 37 15 20 1011.0 1010.9 0.0
26/05:30pm 16.2 9.8 6.9 54 4.6 WSW 30 41 16 22 1010.8 1010.7 0.0
26/05:00pm 15.7 8.9 7.0 56 4.3 WSW 32 43 17 23 1010.8 1010.7 0.0
26/04:30pm 16.0 9.2 7.0 55 4.4 SW 32 44 17 24 1010.7 1010.6 0.0
26/04:00pm 16.6 9.6 7.0 53 4.8 SW 33 48 18 26 1010.6 1010.5 0.0
26/03:30pm 16.7 9.8 7.4 54 4.7 SW 33 50 18 27 1010.6 1010.5 0.0
26/03:00pm 16.4 8.5 6.0 50 5.1 SW 37 48 20 26 1010.5 1010.4 0.0
26/02:30pm 15.8 7.2 6.3 53 4.6 SW 41 52 22 28 1010.3 1010.2 0.0
26/02:00pm 15.1 6.4 5.9 54 4.4 SW 41 52 22 28 1010.0 1009.9 0.0
26/01:30pm 15.8 7.7 7.1 56 4.3 SW 39 56 21 30 1009.6 1009.5 0.0
26/01:00pm 15.7 7.4 5.9 52 4.7 SW 39 57 21 31 1009.6 1009.5 0.0
26/12:30pm 15.9 7.0 6.9 55 4.4 SW 43 61 23 33 1009.2 1009.1 0.0
26/12:00pm 14.7 6.3 7.5 62 3.6 WSW 41 63 22 34 1009.4 1009.3 0.0
26/11:30am 12.0 3.0 7.1 72 2.4 SW 44 63 24 34 1009.2 1009.1 0.0
26/11:03am 14.3 6.9 6.6 60 3.7 SW 35 54 19 29 1008.3 1008.2 0.0
26/11:00am 14.7 7.4 7.3 61 3.7 SW 35 52 19 28 1008.3 1008.2 0.0
26/10:30am 14.2 5.8 7.3 63 3.4 SW 41 59 22 32 1007.7 1007.6 0.0
26/10:00am 13.7 4.9 7.2 65 3.2 SW 43 61 23 33 1007.0 1006.9 0.0
26/09:30am 13.8 4.8 9.0 73 2.4 SW 46 70 25 38 1006.3 1006.2 0.0
26/09:00am 14.0 6.3 8.8 71 2.6 SW 39 57 21 31 1005.4 1005.3 4.4
26/08:30am 12.6 5.9 9.8 83 1.4 SW 35 54 19 29 1005.0 1004.9 4.2
26/08:05am 11.6 4.8 10.5 93 0.6 SW 37 59 20 32 1005.1 1005.0 4.2
26/08:00am 11.7 5.8 10.6 93 0.6 SW 32 44 17 24 1005.0 1004.9 3.8
26/07:42am 11.7 5.3 10.6 93 0.6 SW 35 50 19 27 1004.5 1004.4 2.8
26/07:30am 11.6 4.0 10.5 93 0.6 SW 41 61 22 33 1004.4 1004.3 2.4
26/07:27am 11.7 3.8 10.8 94 0.5 SW 43 61 23 33 1004.3 1004.2 2.4
26/07:00am 11.8 4.1 11.6 99 0.1 SW 43 63 23 34 1003.6 1003.5 1.6
26/06:33am 12.0 2.2 11.4 96 0.3 SW 54 76 29 41 1003.0 1002.9 0.4
26/06:30am 12.2 2.4 11.4 95 0.4 SW 54 76 29 41 1002.8 1002.7 0.2
26/06:23am 13.2 4.7 11.9 92 0.7 WSW 48 74 26 40 1002.7 1002.6 0.2
26/06:19am 14.3 6.1 11.8 85 1.3 WNW 46 74 25 40 1002.4 1002.3 0.0
26/06:04am 16.4 8.9 12.2 76 2.3 WNW 43 61 23 33 1002.0 1001.9 0.0
26/06:00am 16.4 8.9 12.0 75 2.4 WNW 43 59 23 32 1002.1 1002.0 0.0
26/05:42am 16.5 9.2 12.7 78 2.1 WNW 43 61 23 33 1002.2 1002.1 0.0
26/05:30am 16.4 9.4 12.4 77 2.2 WNW 41 50 22 27 1002.4 1002.3 0.0
26/05:00am 16.5 9.1 11.2 71 2.9 WNW 41 52 22 28 1002.8 1002.7 0.0
26/04:30am 16.2 9.4 12.0 76 2.3 WNW 39 50 21 27 1003.4 1003.3 0.0
26/04:00am 16.3 9.5 10.8 70 2.9 WNW 37 52 20 28 1003.6 1003.5 0.0
26/03:30am 16.1 10.1 10.8 71 2.8 WNW 33 43 18 23 1004.2 1004.1 0.0
26/03:00am 16.1 9.4 11.1 72 2.7 WNW 37 46 20 25 1004.6 1004.5 0.0
26/02:30am 16.0 10.4 10.3 69 3.0 WNW 30 37 16 20 1005.0 1004.9 0.0
26/02:00am 15.9 10.8 10.7 71 2.8 WNW 28 37 15 20 1005.7 1005.6 0.0

Other formats

Comma delimited format used in spreadsheet applications
http://www.bom.gov.au/fwo/IDT60801/IDT60801.94850.axf

JavaScript Object Notation format (JSON) in row-major order
http://www.bom.gov.au/fwo/IDT60801/IDT60801.94850.json

Data quality

Most of these data are generated automatically and are frequently updated. Quality checks on data are not normally performed. It is possible for incorrect values to appear. Refer to information at About Latest Weather Observations and please check the disclaimer before using these data.